Time;durP1;ratioP1;P1;durP2;ratioP2;P2;SDS_P1;SDS_P2;PMS_P1;PMS_P2;Temp;Humidity;BMP_temperature;BMP_pressure;BME280_temperature;BME280_humidity;BME280_pressure;Samples;Min_cycle;Max_cycle;Signal;HPM_P1;HPM_P2
2023/08/24 00:01:33;;;;;;;14.50;4.95;;;;;;;-144.73;100.00;54327.66;4978946;28;20486;-72
2023/08/24 00:03:58;;;;;;;12.93;3.92;;;;;;;-144.73;100.00;54374.84;4982058;28;20022;-73
2023/08/24 00:06:24;;;;;;;12.75;3.95;;;;;;;-144.73;100.00;54407.69;4974217;28;20039;-72
2023/08/24 00:08:50;;;;;;;9.65;4.18;;;;;;;-144.73;100.00;54342.03;4983309;28;20027;-71
2023/08/24 00:11:15;;;;;;;12.75;4.82;;;;;;;-144.73;100.00;54362.53;4975111;28;20030;-72
2023/08/24 00:13:48;;;;;;;14.60;4.20;;;;;;;-144.73;100.00;54358.44;4989205;28;20026;-72
2023/08/24 00:16:18;;;;;;;12.38;4.15;;;;;;;-144.73;100.00;54364.59;4985736;28;20046;-72
2023/08/24 00:18:44;;;;;;;15.45;4.15;;;;;;;-144.73;100.00;54346.13;4979091;28;20479;-73
2023/08/24 00:21:11;;;;;;;15.65;4.10;;;;;;;-144.73;100.00;54383.06;4979606;28;20030;-72
2023/08/24 00:23:37;;;;;;;8.18;3.70;;;;;;;-144.73;100.00;54344.06;4980721;28;20039;-72
2023/08/24 00:26:02;;;;;;;14.18;3.83;;;;;;;-144.73;100.00;54319.44;4982410;28;20035;-72
2023/08/24 00:28:28;;;;;;;12.77;3.88;;;;;;;-144.73;100.00;54366.66;4981023;28;20019;-73
2023/08/24 00:30:53;;;;;;;13.45;4.25;;;;;;;-144.73;100.00;54370.75;4977145;28;20498;-72
2023/08/24 00:33:19;;;;;;;11.60;3.50;;;;;;;-144.73;100.00;54358.44;4974486;28;20023;-72
2023/08/24 00:35:45;;;;;;;10.70;3.70;;;;;;;-144.73;100.00;54378.97;4973702;28;20031;-72
2023/08/24 00:38:10;;;;;;;14.02;3.83;;;;;;;-144.73;100.00;54329.72;4975262;28;20030;-73
2023/08/24 00:40:35;;;;;;;9.80;3.65;;;;;;;-144.73;100.00;54376.91;4977645;28;20022;-72
2023/08/24 00:43:01;;;;;;;11.95;4.80;;;;;;;-144.73;100.00;54350.22;4981935;28;20050;-73
2023/08/24 00:45:27;;;;;;;8.73;3.67;;;;;;;-144.73;100.00;54383.06;4984075;28;20031;-73
2023/08/24 00:47:52;;;;;;;10.02;3.88;;;;;;;-144.73;100.00;54356.38;4988393;28;20019;-72
2023/08/24 00:50:18;;;;;;;14.60;4.57;;;;;;;-144.73;100.00;54313.28;4986332;28;20038;-72
2023/08/24 00:52:44;;;;;;;16.10;4.07;;;;;;;-144.73;100.00;54354.34;4982164;28;20093;-73
2023/08/24 00:55:10;;;;;;;13.20;3.50;;;;;;;-144.73;100.00;54358.44;4982058;28;20058;-72
2023/08/24 00:57:36;;;;;;;11.88;3.92;;;;;;;-144.73;100.00;54352.28;4978979;28;20023;-73
2023/08/24 01:00:05;;;;;;;11.50;4.13;;;;;;;-144.73;100.00;54391.28;4982163;28;20023;-72
2023/08/24 01:02:31;;;;;;;11.57;4.10;;;;;;;-144.73;100.00;54346.13;4983923;28;20022;-72
2023/08/24 01:04:58;;;;;;;18.88;3.90;;;;;;;-144.73;100.00;54348.19;4980041;28;20122;-71
2023/08/24 01:07:24;;;;;;;8.13;3.88;;;;;;;-144.73;100.00;54335.88;4976779;28;20037;-73
2023/08/24 01:09:50;;;;;;;14.05;5.60;;;;;;;-144.73;100.00;54362.53;4983847;28;20043;-72
2023/08/24 01:12:37;;;;;;;12.38;3.97;;;;;;;-144.73;100.00;54350.22;4983148;28;20066;-72
2023/08/24 01:15:11;;;;;;;19.33;3.80;;;;;;;-144.73;100.00;54342.03;4985986;28;20030;-72
2023/08/24 01:17:39;;;;;;;19.25;4.03;;;;;;;-144.73;100.00;54391.28;4980652;28;20046;-72
2023/08/24 01:20:06;;;;;;;14.90;4.15;;;;;;;-144.73;100.00;54366.66;4982610;28;20027;-73
2023/08/24 01:22:37;;;;;;;13.75;4.28;;;;;;;-144.73;100.00;54333.81;4984671;28;20073;-72
2023/08/24 01:25:15;;;;;;;;;;;;;;;-144.73;100.00;54358.44;4973799;28;20042;-72
2023/08/24 01:27:42;;;;;;;13.27;4.45;;;;;;;-144.73;100.00;54374.84;4973200;28;19932;-74
2023/08/24 01:30:09;;;;;;;15.32;4.45;;;;;;;-144.73;100.00;54329.72;4981336;28;20038;-72
2023/08/24 01:32:35;;;;;;;12.77;4.88;;;;;;;-144.73;100.00;54317.38;4983489;28;20031;-72
2023/08/24 01:35:04;;;;;;;15.20;4.93;;;;;;;-144.73;100.00;54358.44;4981592;28;20061;-73
2023/08/24 01:37:29;;;;;;;12.27;4.95;;;;;;;-144.73;100.00;54378.97;4986866;28;20015;-72
2023/08/24 01:40:16;;;;;;;11.35;3.70;;;;;;;-144.73;100.00;54370.75;4978065;28;20041;-73
2023/08/24 01:42:53;;;;;;;12.38;3.80;;;;;;;-144.73;100.00;54335.88;4984163;28;20033;-72
2023/08/24 01:45:22;;;;;;;6.25;3.65;;;;;;;-144.73;100.00;54331.75;4987338;28;20034;-72
2023/08/24 01:47:48;;;;;;;14.85;5.03;;;;;;;-144.73;100.00;54358.44;4978227;28;20474;-72
2023/08/24 01:50:14;;;;;;;10.60;3.55;;;;;;;-144.73;100.00;54342.03;4991672;28;20054;-72
2023/08/24 01:52:41;;;;;;;9.38;3.95;;;;;;;-144.73;100.00;54415.91;4979108;28;20021;-73
2023/08/24 01:55:07;;;;;;;9.07;4.97;;;;;;;-144.73;100.00;54339.97;4988725;28;20027;-72
2023/08/24 01:57:32;;;;;;;13.68;4.80;;;;;;;-144.73;100.00;54337.91;4984565;28;20029;-71
2023/08/24 01:59:58;;;;;;;10.25;4.13;;;;;;;-144.73;100.00;54346.13;4990892;28;20081;-71
2023/08/24 02:02:24;;;;;;;11.02;4.80;;;;;;;-144.73;100.00;54354.34;4982558;28;20034;-73
2023/08/24 02:04:50;;;;;;;17.00;6.18;;;;;;;-144.73;100.00;54366.66;4981962;28;20034;-72
2023/08/24 02:07:16;;;;;;;15.45;5.65;;;;;;;-144.73;100.00;54346.13;4989890;28;20076;-72
2023/08/24 02:09:41;;;;;;;20.55;5.10;;;;;;;-144.73;100.00;54424.13;4990729;28;20026;-73
2023/08/24 02:12:07;;;;;;;15.43;4.53;;;;;;;-144.73;100.00;54374.84;4992497;28;20481;-72
2023/08/24 02:14:32;;;;;;;18.15;6.00;;;;;;;-144.73;100.00;54383.06;4979636;28;20030;-73
2023/08/24 02:16:57;;;;;;;14.40;5.65;;;;;;;-144.73;100.00;54374.84;4977139;28;20106;-72
2023/08/24 02:19:23;;;;;;;17.70;4.75;;;;;;;-144.73;100.00;54370.75;4973800;28;20105;-73
2023/08/24 02:21:48;;;;;;;12.80;6.47;;;;;;;-144.73;100.00;54399.50;4982002;28;20093;-73
2023/08/24 02:24:13;;;;;;;16.25;5.82;;;;;;;-144.73;100.00;54391.28;4982883;28;20089;-73
2023/08/24 02:26:39;;;;;;;14.25;5.38;;;;;;;-144.73;100.00;54366.66;4975320;28;20030;-73
2023/08/24 02:29:04;;;;;;;14.88;5.45;;;;;;;-144.73;100.00;54342.03;4975822;28;20030;-72
2023/08/24 02:31:30;;;;;;;15.27;5.53;;;;;;;-144.73;100.00;54383.06;4981754;28;20042;-73
2023/08/24 02:33:55;;;;;;;20.75;4.72;;;;;;;-144.73;100.00;54358.44;4973806;28;20026;-70
2023/08/24 02:36:21;;;;;;;12.73;4.63;;;;;;;-144.73;100.00;54346.13;4981863;28;20420;-72
2023/08/24 02:38:47;;;;;;;15.02;4.60;;;;;;;-144.73;100.00;54374.84;4975384;28;20082;-72
2023/08/24 02:41:14;;;;;;;15.73;6.43;;;;;;;-144.73;100.00;54368.69;4979875;28;20076;-71
2023/08/24 02:43:40;;;;;;;11.57;4.78;;;;;;;-144.73;100.00;54411.81;4971753;28;20050;-71
2023/08/24 02:46:09;;;;;;;17.77;5.75;;;;;;;-144.73;100.00;54370.75;4971233;28;20093;-71
2023/08/24 02:48:35;;;;;;;12.45;5.10;;;;;;;-144.73;100.00;54370.75;4970000;28;20035;-71
2023/08/24 02:51:03;;;;;;;14.07;5.07;;;;;;;-144.73;100.00;54356.38;4972312;28;20093;-72
2023/08/24 02:53:28;;;;;;;19.10;4.65;;;;;;;-144.73;100.00;54383.06;4980696;28;20019;-71
2023/08/24 02:55:54;;;;;;;17.67;5.55;;;;;;;-144.73;100.00;54346.13;4970211;28;20035;-72
2023/08/24 02:58:20;;;;;;;10.55;3.90;;;;;;;-144.73;100.00;54358.44;4980406;28;20018;-71
2023/08/24 03:00:46;;;;;;;12.48;4.47;;;;;;;-144.73;100.00;54366.66;4973102;28;20031;-71
2023/08/24 03:03:16;;;;;;;16.63;4.97;;;;;;;-144.73;100.00;54350.22;4973854;28;20018;-71
2023/08/24 03:05:58;;;;;;;13.25;5.20;;;;;;;-144.73;100.00;54391.28;4988552;28;20045;-71
2023/08/24 03:08:24;;;;;;;12.85;4.80;;;;;;;-144.73;100.00;54374.84;4976385;28;20042;-72
2023/08/24 03:10:49;;;;;;;13.45;5.20;;;;;;;-144.73;100.00;54411.81;4981755;28;20109;-71
2023/08/24 03:13:15;;;;;;;15.75;6.28;;;;;;;-144.73;100.00;54370.75;4970961;28;20046;-71
2023/08/24 03:15:40;;;;;;;9.55;5.05;;;;;;;-144.73;100.00;54378.97;4970845;28;20474;-72
2023/08/24 03:18:06;;;;;;;13.63;5.00;;;;;;;-144.73;100.00;54391.28;4970821;28;20031;-72
2023/08/24 03:20:31;;;;;;;16.23;6.13;;;;;;;-144.73;100.00;54362.53;4973653;28;20077;-71
2023/08/24 03:22:57;;;;;;;16.55;5.78;;;;;;;-144.73;100.00;54391.28;4987280;28;20029;-71
2023/08/24 03:25:22;;;;;;;14.70;6.10;;;;;;;-144.73;100.00;54397.44;4984113;28;20034;-71
2023/08/24 03:27:48;;;;;;;18.80;6.55;;;;;;;-144.73;100.00;54415.91;4976710;28;20027;-71
2023/08/24 03:30:14;;;;;;;11.65;6.15;;;;;;;-144.73;100.00;54374.84;4977807;28;20086;-71
2023/08/24 03:32:42;;;;;;;15.00;5.90;;;;;;;-144.73;100.00;54370.75;4974509;28;20029;-72
2023/08/24 03:35:08;;;;;;;20.23;6.38;;;;;;;-144.73;100.00;54415.91;4980303;28;20039;-71
2023/08/24 03:37:33;;;;;;;14.43;6.63;;;;;;;-144.73;100.00;54378.97;4984273;28;20041;-72
2023/08/24 03:39:59;;;;;;;15.15;6.40;;;;;;;-144.73;100.00;54362.53;4982693;28;20041;-71
2023/08/24 03:42:24;;;;;;;15.05;6.93;;;;;;;-144.73;100.00;54362.53;4986608;28;20026;-71
2023/08/24 03:44:49;;;;;;;20.13;8.15;;;;;;;-144.73;100.00;54415.91;4979383;28;20065;-71
2023/08/24 03:47:15;;;;;;;16.83;8.55;;;;;;;-144.73;100.00;54370.75;4980497;28;20073;-71
2023/08/24 03:49:43;;;;;;;14.80;7.13;;;;;;;-144.73;100.00;54374.84;4975628;28;20034;-71
2023/08/24 03:52:09;;;;;;;15.73;6.10;;;;;;;-144.73;100.00;54397.44;4978689;28;20120;-71
2023/08/24 03:54:34;;;;;;;21.10;7.25;;;;;;;-144.73;100.00;54407.69;4977650;28;20038;-72
2023/08/24 03:56:59;;;;;;;18.80;7.20;;;;;;;-144.73;100.00;54395.38;4978979;28;20505;-71
2023/08/24 03:59:25;;;;;;;16.90;8.18;;;;;;;-144.73;100.00;54391.28;4985369;28;20031;-71
2023/08/24 04:01:50;;;;;;;16.73;6.97;;;;;;;-144.73;100.00;54407.69;4970638;28;20478;-72
2023/08/24 04:04:15;;;;;;;16.60;7.22;;;;;;;-144.73;100.00;54378.97;4971097;28;20121;-71
2023/08/24 04:06:41;;;;;;;22.35;7.85;;;;;;;-144.73;100.00;54415.91;4976717;28;20117;-71
2023/08/24 04:09:06;;;;;;;17.85;6.82;;;;;;;-144.73;100.00;54381.00;4972958;28;20027;-71
2023/08/24 04:11:32;;;;;;;20.10;8.35;;;;;;;-144.73;100.00;54391.28;4977326;28;20027;-71
2023/08/24 04:13:57;;;;;;;16.80;7.72;;;;;;;-144.73;100.00;54420.00;4979991;28;20026;-71
2023/08/24 04:16:22;;;;;;;15.02;6.82;;;;;;;-144.73;100.00;54415.91;4980320;28;20031;-71
2023/08/24 04:18:48;;;;;;;13.95;7.32;;;;;;;-144.73;100.00;54391.28;4980757;28;20033;-71
2023/08/24 04:21:13;;;;;;;20.95;8.38;;;;;;;-144.73;100.00;54383.06;4971717;28;20035;-70
2023/08/24 04:23:42;;;;;;;14.15;7.47;;;;;;;-144.73;100.00;54387.19;4980685;28;20031;-71
2023/08/24 04:26:07;;;;;;;20.17;8.25;;;;;;;-144.73;100.00;54387.19;4979110;28;20046;-71
2023/08/24 04:28:33;;;;;;;18.20;8.60;;;;;;;-144.73;100.00;54358.44;4978323;28;20015;-71
2023/08/24 04:30:58;;;;;;;17.67;8.18;;;;;;;-144.73;100.00;54383.06;4977071;28;20038;-70
2023/08/24 04:33:23;;;;;;;13.73;7.57;;;;;;;-144.73;100.00;54407.69;4980328;28;20023;-70
2023/08/24 04:35:50;;;;;;;22.63;8.20;;;;;;;-144.73;100.00;54409.75;4975790;28;20562;-71
2023/08/24 04:38:16;;;;;;;21.00;8.50;;;;;;;-144.73;100.00;54387.19;4971369;28;20019;-70
2023/08/24 04:40:51;;;;;;;18.58;8.82;;;;;;;-144.73;100.00;54368.69;4982601;28;20038;-70
2023/08/24 04:43:17;;;;;;;12.70;6.78;;;;;;;-144.73;100.00;54350.22;4986393;28;20083;-70
2023/08/24 04:45:42;;;;;;;17.33;7.65;;;;;;;-144.73;100.00;54385.13;4982196;28;20046;-70
2023/08/24 04:48:07;;;;;;;15.40;7.20;;;;;;;-144.73;100.00;54385.13;4979802;28;20034;-71
2023/08/24 04:50:33;;;;;;;19.95;7.57;;;;;;;-144.73;100.00;54424.13;4976487;28;20062;-72
2023/08/24 04:52:59;;;;;;;12.95;7.38;;;;;;;-144.73;100.00;54387.19;4970422;28;20018;-71
2023/08/24 04:55:24;;;;;;;15.20;7.63;;;;;;;-144.73;100.00;54428.22;4986723;28;20034;-71
2023/08/24 04:57:49;;;;;;;11.95;6.93;;;;;;;-144.73;100.00;54407.69;4976053;28;20078;-71
2023/08/24 05:00:16;;;;;;;16.50;8.48;;;;;;;-144.73;100.00;54378.97;4978116;28;20034;-70
2023/08/24 05:02:42;;;;;;;19.10;9.13;;;;;;;-144.73;100.00;54422.06;4987186;28;20057;-70
2023/08/24 05:05:10;;;;;;;18.27;8.73;;;;;;;-144.73;100.00;54420.00;4975906;28;20039;-71
2023/08/24 05:07:38;;;;;;;15.00;7.45;;;;;;;-144.73;100.00;54391.28;4973358;28;20034;-70
2023/08/24 05:10:04;;;;;;;18.08;8.25;;;;;;;-144.73;100.00;54391.28;4972613;28;20105;-73
2023/08/24 05:12:29;;;;;;;17.80;8.48;;;;;;;-144.73;100.00;54411.81;4974886;28;20038;-71
2023/08/24 05:14:55;;;;;;;20.23;8.57;;;;;;;-144.73;100.00;54407.69;4972672;28;20052;-71
2023/08/24 05:17:21;;;;;;;22.88;9.57;;;;;;;-144.73;100.00;54383.06;4973072;28;20023;-71
2023/08/24 05:19:51;;;;;;;18.45;9.50;;;;;;;-144.73;100.00;54407.69;4972391;28;20118;-71
2023/08/24 05:22:16;;;;;;;19.90;8.40;;;;;;;-144.73;100.00;54428.22;4983644;28;20057;-71
2023/08/24 05:24:41;;;;;;;19.90;9.48;;;;;;;-144.73;100.00;54407.69;4979615;28;20034;-71
2023/08/24 05:27:07;;;;;;;24.13;9.73;;;;;;;-144.73;100.00;54378.97;4973369;28;20038;-72
2023/08/24 05:29:32;;;;;;;17.70;8.82;;;;;;;-144.73;100.00;54407.69;4972532;28;20090;-71
2023/08/24 05:31:57;;;;;;;16.98;9.48;;;;;;;-144.73;100.00;54407.69;4980755;28;20027;-73
2023/08/24 05:34:23;;;;;;;19.40;9.00;;;;;;;-144.73;100.00;54378.97;4974368;28;20018;-72
2023/08/24 05:36:48;;;;;;;18.13;8.73;;;;;;;-144.73;100.00;54415.91;4986214;28;20038;-72
2023/08/24 05:39:13;;;;;;;19.20;9.23;;;;;;;-144.73;100.00;54415.91;4973215;28;20042;-72
2023/08/24 05:41:39;;;;;;;21.30;10.50;;;;;;;-144.73;100.00;54391.28;4972974;28;20027;-72
2023/08/24 05:44:04;;;;;;;21.73;10.05;;;;;;;-144.73;100.00;54428.22;4981434;28;20050;-72
2023/08/24 05:46:29;;;;;;;20.38;9.25;;;;;;;-144.73;100.00;54411.81;4983970;28;20026;-72
2023/08/24 05:48:56;;;;;;;22.08;9.40;;;;;;;-144.73;100.00;54417.97;4985247;28;20089;-72
2023/08/24 05:51:21;;;;;;;18.35;8.65;;;;;;;-144.73;100.00;54407.69;4984412;28;20062;-72
2023/08/24 05:53:47;;;;;;;13.25;7.07;;;;;;;-144.73;100.00;54422.06;4985506;28;20184;-72
2023/08/24 05:56:12;;;;;;;13.70;7.68;;;;;;;-144.73;100.00;54415.91;4970800;28;20039;-72
2023/08/24 05:58:37;;;;;;;23.23;14.82;;;;;;;-144.73;100.00;54432.31;4987707;28;20093;-72
2023/08/24 06:01:03;;;;;;;14.73;6.68;;;;;;;-144.73;100.00;54399.50;4979817;28;20035;-72
2023/08/24 06:03:28;;;;;;;14.48;5.88;;;;;;;-144.73;100.00;54415.91;4982554;28;20025;-72
2023/08/24 06:05:53;;;;;;;13.90;4.95;;;;;;;-144.73;100.00;54420.00;4982618;28;20122;-72
2023/08/24 06:08:19;;;;;;;10.07;4.63;;;;;;;-144.73;100.00;54407.69;4988492;28;20058;-72
2023/08/24 06:10:45;;;;;;;13.25;4.25;;;;;;;-144.73;100.00;54378.97;4978386;28;20414;-73
2023/08/24 06:13:10;;;;;;;5.28;3.83;;;;;;;-144.73;100.00;54424.13;4978208;28;20053;-72
2023/08/24 06:15:35;;;;;;;8.23;3.95;;;;;;;-144.73;100.00;54387.19;4990679;28;20117;-72
2023/08/24 06:18:01;;;;;;;9.55;4.05;;;;;;;-144.73;100.00;54374.84;4983767;28;20105;-71
2023/08/24 06:20:26;;;;;;;15.80;4.22;;;;;;;-144.73;100.00;54399.50;4979718;28;20505;-73
2023/08/24 06:22:51;;;;;;;11.68;4.45;;;;;;;-144.73;100.00;54399.50;4971887;28;20062;-73
2023/08/24 06:25:17;;;;;;;8.57;4.00;;;;;;;-144.73;100.00;54409.75;4975768;28;20034;-72
2023/08/24 06:27:43;;;;;;;8.93;3.53;;;;;;;-144.73;100.00;54397.44;4972018;28;20030;-72
2023/08/24 06:30:08;;;;;;;11.30;2.70;;;;;;;-144.73;100.00;54354.34;4971310;28;20058;-73
2023/08/24 06:32:34;;;;;;;8.85;3.50;;;;;;;-144.73;100.00;54368.69;4971649;28;20082;-72
2023/08/24 06:35:00;;;;;;;6.55;3.03;;;;;;;-144.73;100.00;54383.06;4965213;28;20066;-72
2023/08/24 06:37:25;;;;;;;8.20;3.10;;;;;;;-144.73;100.00;54411.81;4971405;28;20085;-72
2023/08/24 06:39:51;;;;;;;8.38;2.67;;;;;;;-144.73;100.00;54430.28;4972428;28;20105;-72
2023/08/24 06:42:16;;;;;;;9.40;2.70;;;;;;;-144.73;100.00;54440.53;4988734;28;20109;-72
2023/08/24 06:44:41;;;;;;;13.07;2.90;;;;;;;-144.73;100.00;54428.22;4988893;28;20038;-72
2023/08/24 06:47:07;;;;;;;14.23;3.35;;;;;;;-144.73;100.00;54383.06;4975643;28;20034;-73
2023/08/24 06:49:32;;;;;;;10.85;5.40;;;;;;;-144.73;100.00;54407.69;4980203;28;20069;-73
2023/08/24 06:51:57;;;;;;;8.63;2.72;;;;;;;-144.73;100.00;54383.06;4971023;28;20027;-72
2023/08/24 06:54:23;;;;;;;5.13;2.17;;;;;;;-144.73;100.00;54395.38;4974053;28;20023;-73
2023/08/24 06:56:48;;;;;;;11.75;2.78;;;;;;;-144.73;100.00;54399.50;4965751;28;20027;-72
2023/08/24 06:59:14;;;;;;;13.48;3.05;;;;;;;-144.73;100.00;54420.00;4970641;28;20065;-74
2023/08/24 07:01:40;;;;;;;8.25;2.42;;;;;;;-144.73;100.00;54407.69;4979182;28;20026;-72
2023/08/24 07:04:06;;;;;;;8.63;2.42;;;;;;;-144.73;100.00;54407.69;4977482;28;20027;-73
2023/08/24 07:06:34;;;;;;;5.75;1.90;;;;;;;-144.73;100.00;54387.19;4979791;28;20022;-73
2023/08/24 07:09:00;;;;;;;6.35;2.22;;;;;;;-144.73;100.00;54411.81;4986919;28;20084;-73
2023/08/24 07:11:25;;;;;;;6.60;2.10;;;;;;;-144.73;100.00;54415.91;4972882;28;20031;-73
2023/08/24 07:13:53;;;;;;;9.13;2.30;;;;;;;-144.73;100.00;54350.22;4979008;28;20038;-73
2023/08/24 07:16:19;;;;;;;10.52;2.22;;;;;;;-144.73;100.00;54399.50;4984361;28;20085;-73
2023/08/24 07:18:44;;;;;;;8.48;2.17;;;;;;;-144.73;100.00;54387.19;4971257;28;20028;-73
2023/08/24 07:21:09;;;;;;;11.20;2.55;;;;;;;-144.73;100.00;54407.69;4968299;28;20035;-73
2023/08/24 07:23:35;;;;;;;7.55;3.40;;;;;;;-144.73;100.00;54378.97;4973389;28;20039;-73
2023/08/24 07:26:00;;;;;;;11.38;2.60;;;;;;;-144.73;100.00;54393.34;4975216;28;20080;-73
2023/08/24 07:28:25;;;;;;;6.43;2.28;;;;;;;-144.73;100.00;54399.50;4965230;28;20026;-73
2023/08/24 07:30:55;;;;;;;27.10;9.45;;;;;;;-144.73;100.00;54356.38;4970064;28;20042;-74
2023/08/24 07:33:21;;;;;;;8.88;2.35;;;;;;;-144.73;100.00;54424.13;4965635;28;20023;-73
2023/08/24 07:35:47;;;;;;;6.05;2.33;;;;;;;-144.73;100.00;54331.75;4965731;28;20042;-72
2023/08/24 07:38:12;;;;;;;11.50;3.38;;;;;;;-144.73;100.00;54387.19;4966518;28;20046;-73
2023/08/24 07:40:38;;;;;;;9.73;3.28;;;;;;;-144.73;100.00;54346.13;4967638;28;20089;-73
2023/08/24 07:43:03;;;;;;;5.00;2.05;;;;;;;-144.73;100.00;54393.34;4965947;28;20482;-72
2023/08/24 07:45:29;;;;;;;5.03;1.95;;;;;;;-144.73;100.00;54374.84;4968235;28;20043;-73
2023/08/24 07:47:55;;;;;;;6.18;2.65;;;;;;;-144.73;100.00;54374.84;4966814;28;20026;-74
2023/08/24 07:50:22;;;;;;;10.00;2.63;;;;;;;-144.73;100.00;54337.91;4967213;28;20042;-74
2023/08/24 07:52:47;;;;;;;6.05;1.70;;;;;;;-144.73;100.00;54346.13;4975711;28;20015;-73
2023/08/24 07:55:13;;;;;;;8.02;1.63;;;;;;;-144.73;100.00;54358.44;4962447;28;20038;-73
2023/08/24 07:57:38;;;;;;;10.57;1.67;;;;;;;-144.73;100.00;54358.44;4967194;28;20038;-73
2023/08/24 08:00:05;;;;;;;6.63;1.75;;;;;;;-144.73;100.00;54407.69;4965272;28;20074;-73
2023/08/24 08:02:32;;;;;;;7.75;2.20;;;;;;;-144.73;100.00;54325.59;4966775;28;20022;-72
2023/08/24 08:04:59;;;;;;;6.15;1.92;;;;;;;-144.73;100.00;54354.34;4964921;28;20085;-73
2023/08/24 08:07:25;;;;;;;6.78;1.85;;;;;;;-144.73;100.00;54350.22;4967474;28;20030;-73
2023/08/24 08:09:50;;;;;;;5.60;2.22;;;;;;;-144.73;100.00;54329.72;4965026;28;20035;-72
2023/08/24 08:12:16;;;;;;;8.55;2.83;;;;;;;-144.73;100.00;54337.91;4966580;28;20033;-72
2023/08/24 08:14:41;;;;;;;12.95;2.33;;;;;;;-144.73;100.00;54383.06;4965671;28;20053;-73
2023/08/24 08:17:07;;;;;;;7.97;1.83;;;;;;;-144.73;100.00;54354.34;4968009;28;20530;-72
2023/08/24 08:19:35;;;;;;;9.23;2.15;;;;;;;-144.73;100.00;54342.03;4967639;28;20061;-73
2023/08/24 08:22:00;;;;;;;6.45;2.00;;;;;;;-144.73;100.00;54344.06;4966653;28;20039;-72
2023/08/24 08:24:25;;;;;;;8.32;2.00;;;;;;;-144.73;100.00;54313.28;4969136;28;20042;-72
2023/08/24 08:26:51;;;;;;;6.43;1.70;;;;;;;-144.73;100.00;54346.13;4996063;28;20475;-73
2023/08/24 08:29:17;;;;;;;7.30;1.90;;;;;;;-144.73;100.00;54350.22;4978143;28;20096;-73
2023/08/24 08:31:42;;;;;;;8.88;1.95;;;;;;;-144.73;100.00;54333.81;4968798;28;20061;-73
2023/08/24 08:34:07;;;;;;;9.68;2.22;;;;;;;-144.73;99.60;54329.72;4964444;28;20027;-72
2023/08/24 08:36:33;;;;;;;7.25;2.03;;;;;;;-144.73;97.50;54329.72;4968988;28;20516;-73
2023/08/24 08:38:58;;;;;;;7.75;1.92;;;;;;;-144.73;100.00;54344.06;4974144;28;20031;-73
2023/08/24 08:41:30;;;;;;;7.15;2.20;;;;;;;-144.73;95.21;54354.34;4975613;28;20039;-72
2023/08/24 08:43:55;;;;;;;8.75;2.40;;;;;;;-144.73;99.88;54329.72;4968727;28;20110;-72
2023/08/24 08:46:21;;;;;;;11.07;2.20;;;;;;;-144.73;94.45;54305.06;4969000;28;20641;-73
2023/08/24 08:48:47;;;;;;;13.02;2.08;;;;;;;-144.73;95.69;54362.53;4968592;28;20022;-72
2023/08/24 08:51:14;;;;;;;20.35;2.22;;;;;;;-144.73;93.97;54315.34;4986507;28;20104;-73
2023/08/24 08:53:40;;;;;;;11.73;2.63;;;;;;;-144.73;93.79;54325.59;4991321;28;20092;-73
2023/08/24 08:56:07;;;;;;;8.23;2.05;;;;;;;-144.73;92.43;54333.81;4988189;28;20038;-73
2023/08/24 08:58:35;;;;;;;11.88;2.40;;;;;;;-144.73;91.50;54284.56;4989867;28;20034;-74
2023/08/24 09:01:03;;;;;;;4.60;2.00;;;;;;;-144.73;88.11;54342.03;4989459;28;20041;-73
2023/08/24 09:03:32;;;;;;;6.20;1.70;;;;;;;-144.73;89.31;54288.66;4988130;28;20026;-73
2023/08/24 09:05:57;;;;;;;12.50;5.45;;;;;;;-144.73;86.08;54333.81;4986095;28;20035;-73
2023/08/24 09:08:27;;;;;;;9.38;2.70;;;;;;;-144.73;85.80;54337.91;4987679;28;20030;-73
2023/08/24 09:10:54;;;;;;;13.25;4.10;;;;;;;-144.73;87.62;54315.34;4988698;28;20478;-73
2023/08/24 09:13:21;;;;;;;9.60;1.98;;;;;;;-144.73;82.69;54317.38;4987092;28;20557;-73
2023/08/24 09:15:46;;;;;;;14.15;2.97;;;;;;;-144.73;83.46;54309.19;4989980;28;20382;-72
2023/08/24 09:18:11;;;;;;;7.45;1.92;;;;;;;-144.73;79.76;54319.44;4990447;28;20045;-73
2023/08/24 09:20:37;;;;;;;6.97;2.42;;;;;;;-144.73;81.51;54358.44;4989139;28;20026;-74
2023/08/24 09:23:03;;;;;;;8.18;2.17;;;;;;;-144.73;81.26;54321.50;4990126;28;20117;-74
2023/08/24 09:25:28;;;;;;;4.32;1.50;;;;;;;-144.73;76.56;54300.97;4986257;28;20066;-73
2023/08/24 09:27:57;;;;;;;5.22;1.85;;;;;;;-144.73;82.70;54305.06;4986922;28;20049;-73
2023/08/24 09:30:23;;;;;;;7.15;2.00;;;;;;;-144.73;80.99;54329.72;4988142;28;20038;-73
2023/08/24 09:32:48;;;;;;;5.70;1.98;;;;;;;-144.73;78.23;54313.28;4987282;28;20053;-74
2023/08/24 09:35:15;;;;;;;7.03;1.80;;;;;;;-144.73;77.38;54329.72;4989039;28;20038;-73
2023/08/24 09:37:45;;;;;;;9.68;2.22;;;;;;;-144.73;82.95;54315.34;4989764;28;20061;-73
2023/08/24 09:40:11;;;;;;;11.40;2.08;;;;;;;-144.73;80.47;54276.34;4988763;28;20049;-74
2023/08/24 09:42:41;;;;;;;11.80;2.35;;;;;;;-144.73;80.01;54346.13;4989053;28;20030;-74
2023/08/24 09:45:16;;;;;;;11.05;2.25;;;;;;;-144.73;84.54;54309.19;4987133;28;20141;-74
2023/08/24 09:47:46;;;;;;;13.80;2.85;;;;;;;-144.73;81.74;54300.97;4988017;28;20022;-74
2023/08/24 09:50:12;;;;;;;11.77;2.30;;;;;;;-144.73;81.89;54305.06;4985647;28;20032;-74
2023/08/24 09:52:40;;;;;;;13.55;2.00;;;;;;;-144.73;79.53;54321.50;4992606;28;20121;-73
2023/08/24 09:55:08;;;;;;;14.23;2.70;;;;;;;-144.73;79.37;54288.66;4987811;28;20034;-74
2023/08/24 09:57:38;;;;;;;10.30;2.70;;;;;;;-144.73;80.42;54305.06;4991203;28;20046;-73
2023/08/24 10:00:14;;;;;;;8.27;2.28;;;;;;;-144.73;80.76;54284.56;4989128;28;20030;-74
2023/08/24 10:02:50;;;;;;;14.70;2.58;;;;;;;-144.73;81.36;54311.22;4990450;28;20398;-73
2023/08/24 10:05:20;;;;;;;14.48;2.60;;;;;;;-144.73;81.48;54313.28;4988860;28;20034;-73
2023/08/24 10:07:56;;;;;;;6.75;2.20;;;;;;;-144.73;85.79;54305.06;4989462;28;20040;-73
2023/08/24 10:10:27;;;;;;;13.30;3.75;;;;;;;-144.73;79.95;54257.88;4989403;28;20034;-73
2023/08/24 10:12:57;;;;;;;;;;;;;;;-144.73;85.38;54346.13;4991857;28;20285;-73
2023/08/24 10:15:24;;;;;;;8.30;3.03;;;;;;;-144.73;82.88;54296.88;4992271;28;19929;-73
2023/08/24 10:17:51;;;;;;;9.73;3.05;;;;;;;-144.73;81.46;54268.13;4991709;28;20101;-73
2023/08/24 10:20:18;;;;;;;10.50;2.67;;;;;;;-144.73;78.75;54325.59;4989092;28;20053;-74
2023/08/24 10:22:46;;;;;;;12.85;2.83;;;;;;;-144.73;80.86;54335.88;4990165;28;20018;-72
2023/08/24 10:25:13;;;;;;;13.80;2.90;;;;;;;-144.73;74.95;54276.34;4993210;28;20037;-72
2023/08/24 10:27:43;;;;;;;12.85;3.05;;;;;;;-144.73;72.72;54300.97;4992812;28;20022;-74
2023/08/24 10:30:12;;;;;;;5.63;2.45;;;;;;;-144.73;73.85;54276.34;4990520;28;20038;-73
2023/08/24 10:32:40;;;;;;;7.90;3.13;;;;;;;-144.73;74.50;54243.50;4989707;28;20026;-73
2023/08/24 10:35:06;;;;;;;8.70;2.88;;;;;;;-144.73;74.70;54290.72;4989883;28;20057;-74
2023/08/24 10:37:34;;;;;;;9.32;2.72;;;;;;;-144.73;76.09;54280.44;4992533;28;20385;-73
2023/08/24 10:40:00;;;;;;;8.60;2.83;;;;;;;-144.73;71.11;54284.56;4989902;28;20037;-73
2023/08/24 10:42:26;;;;;;;6.22;2.75;;;;;;;-144.73;68.96;54333.81;4990560;28;20157;-74
2023/08/24 10:44:52;;;;;;;14.25;2.58;;;;;;;-144.73;68.88;54276.34;4988234;28;20106;-73
2023/08/24 10:47:22;;;;;;;6.65;2.58;;;;;;;-144.73;70.23;54259.91;4988394;28;20034;-74
2023/08/24 10:49:54;;;;;;;16.85;3.63;;;;;;;-144.73;69.62;54251.72;4991748;28;20113;-73
2023/08/24 10:52:27;;;;;;;7.78;3.22;;;;;;;-144.73;66.43;54342.03;4991060;28;20026;-74
2023/08/24 10:54:53;;;;;;;17.63;2.90;;;;;;;-144.73;66.79;54342.03;4991945;28;20041;-73
2023/08/24 10:57:21;;;;;;;9.93;2.90;;;;;;;-144.73;66.97;54280.44;4994253;28;20019;-74
2023/08/24 11:00:05;;;;;;;11.18;3.03;;;;;;;-144.73;64.62;54266.06;4989994;28;20031;-73
2023/08/24 11:02:51;;;;;;;8.85;2.83;;;;;;;-144.73;62.34;54239.41;4990666;28;20041;-73
2023/08/24 11:05:30;;;;;;;6.63;2.60;;;;;;;-144.73;63.78;54251.72;4989809;28;20077;-73